Time;durP1;ratioP1;P1;durP2;ratioP2;P2;SDS_P1;SDS_P2;PMS_P1;PMS_P2;Temp;Humidity;BMP_temperature;BMP_pressure;BME280_temperature;BME280_humidity;BME280_pressure;Samples;Min_cycle;Max_cycle;Signal;HPM_P1;HPM_P2
2021/10/25 00:02:17;;;;;;;19.13;12.40;;;;;;;8.94;53.35;95934.91;4992927;28;20057;-73
2021/10/25 00:04:42;;;;;;;18.63;12.25;;;;;;;8.93;53.46;95946.59;4990140;28;20060;-72
2021/10/25 00:07:08;;;;;;;16.83;13.52;;;;;;;8.91;53.66;95936.25;4990494;28;20081;-72
2021/10/25 00:09:33;;;;;;;20.60;13.88;;;;;;;8.97;53.56;95929.06;4990095;28;20030;-72
2021/10/25 00:11:59;;;;;;;24.52;15.45;;;;;;;8.98;53.79;95934.09;4990821;28;20053;-72
2021/10/25 00:14:25;;;;;;;21.75;13.68;;;;;;;9.10;53.20;95955.78;4992667;28;20034;-73
2021/10/25 00:16:51;;;;;;;22.77;13.90;;;;;;;9.15;53.42;95962.91;4990580;28;20034;-73
2021/10/25 00:19:17;;;;;;;24.33;14.68;;;;;;;9.12;53.29;95963.47;4990074;28;20034;-73
2021/10/25 00:21:43;;;;;;;19.33;13.82;;;;;;;9.08;53.50;95963.22;4989805;28;20038;-73
2021/10/25 00:24:09;;;;;;;15.88;12.52;;;;;;;9.11;53.38;95965.34;4989881;28;20396;-73
2021/10/25 00:26:34;;;;;;;17.17;13.00;;;;;;;9.15;53.35;95948.84;4991013;28;20041;-73
2021/10/25 00:29:01;;;;;;;22.27;14.73;;;;;;;9.10;53.03;95954.97;4990009;28;20661;-73
2021/10/25 00:31:26;;;;;;;20.38;13.82;;;;;;;9.04;53.52;95950.78;4990355;28;20038;-73
2021/10/25 00:33:52;;;;;;;15.95;12.25;;;;;;;9.14;53.02;95949.94;4989917;28;20377;-73
2021/10/25 00:36:18;;;;;;;17.23;12.57;;;;;;;9.02;53.26;95934.34;4989588;28;20038;-73
2021/10/25 00:38:44;;;;;;;15.93;11.23;;;;;;;9.04;53.12;95948.13;4989916;28;20659;-72
2021/10/25 00:41:10;;;;;;;15.00;12.20;;;;;;;8.95;53.37;95924.00;4989943;28;20044;-73
2021/10/25 00:43:36;;;;;;;18.08;13.40;;;;;;;8.98;53.07;95935.94;4989759;28;20046;-74
2021/10/25 00:46:02;;;;;;;11.75;10.15;;;;;;;8.96;52.92;95940.75;4989912;28;20104;-73
2021/10/25 00:48:28;;;;;;;14.57;11.85;;;;;;;8.92;53.10;95926.44;4989889;28;20049;-73
2021/10/25 00:50:53;;;;;;;16.35;11.43;;;;;;;8.94;53.42;95926.94;4988108;28;20034;-73
2021/10/25 00:53:18;;;;;;;15.10;11.32;;;;;;;8.94;53.50;95929.59;4990717;28;20030;-72
2021/10/25 00:55:45;;;;;;;13.32;10.40;;;;;;;8.93;53.23;95934.13;4989839;28;20126;-71
2021/10/25 00:58:10;;;;;;;12.68;9.02;;;;;;;8.85;53.16;95926.72;4988305;28;20030;-71
2021/10/25 01:00:36;;;;;;;11.80;10.60;;;;;;;8.90;53.35;95937.31;4989193;28;20570;-71
2021/10/25 01:03:02;;;;;;;13.15;11.25;;;;;;;8.87;53.37;95940.53;4989221;28;20108;-71
2021/10/25 01:05:29;;;;;;;10.20;9.02;;;;;;;8.82;53.16;95928.06;4989619;28;20033;-73
2021/10/25 01:07:55;;;;;;;9.55;8.63;;;;;;;8.84;53.59;95941.84;4988824;28;20053;-70
2021/10/25 01:10:21;;;;;;;11.60;9.38;;;;;;;8.78;53.35;95931.53;4987482;28;20440;-71
2021/10/25 01:12:48;;;;;;;8.85;7.95;;;;;;;8.72;53.13;95933.41;4989219;28;20050;-74
2021/10/25 01:15:13;;;;;;;10.23;8.75;;;;;;;8.80;53.47;95942.66;4989323;28;20038;-70
2021/10/25 01:17:39;;;;;;;9.20;7.90;;;;;;;8.76;52.89;95945.09;4990079;28;20037;-73
2021/10/25 01:20:05;;;;;;;9.95;8.32;;;;;;;8.70;52.88;95934.75;4988333;28;20077;-73
2021/10/25 01:22:30;;;;;;;9.23;7.38;;;;;;;8.72;53.24;95933.41;4981134;28;20035;-73
2021/10/25 01:24:56;;;;;;;11.75;7.60;;;;;;;8.67;53.32;95922.84;4989221;28;20042;-73
2021/10/25 01:27:22;;;;;;;8.07;7.28;;;;;;;8.71;53.50;95934.50;4988179;28;20038;-73
2021/10/25 01:29:48;;;;;;;8.05;7.03;;;;;;;8.70;53.60;95932.09;4991010;28;20030;-73
2021/10/25 01:32:14;;;;;;;8.07;7.28;;;;;;;8.70;53.54;95932.91;4988001;28;20047;-74
2021/10/25 01:34:41;;;;;;;7.68;6.97;;;;;;;8.68;53.49;95929.72;4988878;28;20061;-73
2021/10/25 01:37:08;;;;;;;10.13;8.10;;;;;;;8.69;53.61;95915.38;4996493;28;20053;-73
2021/10/25 01:39:34;;;;;;;7.60;6.90;;;;;;;8.70;53.46;95914.34;4988596;28;20045;-72
2021/10/25 01:42:00;;;;;;;7.75;6.38;;;;;;;8.73;53.80;95919.09;4989132;28;20027;-73
2021/10/25 01:44:25;;;;;;;7.72;6.57;;;;;;;8.76;53.44;95907.16;4990529;28;20531;-73
2021/10/25 01:46:50;;;;;;;8.00;6.13;;;;;;;8.73;53.75;95919.09;4988874;28;20056;-73
2021/10/25 01:49:16;;;;;;;10.48;7.07;;;;;;;8.71;53.29;95904.53;4988479;28;20064;-73
2021/10/25 01:51:42;;;;;;;7.45;6.65;;;;;;;8.74;53.37;95910.06;4993195;28;20042;-72
2021/10/25 01:54:08;;;;;;;7.65;6.40;;;;;;;8.80;53.35;95909.00;4990927;28;20054;-73
2021/10/25 01:56:37;;;;;;;8.43;6.65;;;;;;;8.85;53.25;95906.31;4989172;28;20022;-72
2021/10/25 01:59:04;;;;;;;5.72;5.22;;;;;;;8.92;52.91;95911.31;4988177;28;20043;-72
2021/10/25 02:01:29;;;;;;;6.00;5.40;;;;;;;8.86;53.35;95907.09;4988087;28;20038;-73
2021/10/25 02:03:55;;;;;;;6.95;5.10;;;;;;;8.91;53.60;95895.66;4985916;28;20093;-73
2021/10/25 02:06:21;;;;;;;5.78;5.25;;;;;;;8.96;53.19;95899.09;4986373;28;20046;-72
2021/10/25 02:08:47;;;;;;;6.78;6.18;;;;;;;9.09;53.32;95910.94;4997997;28;20026;-72
2021/10/25 02:11:13;;;;;;;7.53;6.55;;;;;;;9.09;52.84;95897.66;4986920;28;20034;-73
2021/10/25 02:13:39;;;;;;;5.75;5.15;;;;;;;9.11;52.83;95899.00;4988299;28;20133;-72
2021/10/25 02:16:05;;;;;;;6.13;5.53;;;;;;;9.13;52.83;95911.19;4988574;28;20557;-72
2021/10/25 02:18:31;;;;;;;9.48;5.82;;;;;;;9.11;53.14;95899.00;4988167;28;20543;-72
2021/10/25 02:20:56;;;;;;;4.25;3.85;;;;;;;9.01;53.02;95899.06;4987780;28;20365;-73
2021/10/25 02:23:22;;;;;;;4.72;4.30;;;;;;;9.20;53.28;95891.22;4989796;28;20046;-72
2021/10/25 02:25:48;;;;;;;4.75;4.35;;;;;;;9.23;53.17;95879.25;4986676;28;20056;-72
2021/10/25 02:28:13;;;;;;;4.53;4.13;;;;;;;9.40;53.27;95889.47;4988549;28;20500;-72
2021/10/25 02:30:39;;;;;;;5.85;4.30;;;;;;;9.44;52.65;95890.53;4987917;28;20089;-73
2021/10/25 02:33:04;;;;;;;4.60;4.20;;;;;;;9.51;52.51;95888.31;4987804;28;20080;-72
2021/10/25 02:35:30;;;;;;;4.40;4.00;;;;;;;9.55;52.60;95878.75;4989801;28;20097;-71
2021/10/25 02:37:57;;;;;;;5.78;5.10;;;;;;;9.64;52.59;95893.00;4995307;28;20034;-74
2021/10/25 02:40:28;;;;;;;5.47;4.95;;;;;;;9.67;52.36;95889.78;4988788;28;20057;-72
2021/10/25 02:42:56;;;;;;;6.57;5.10;;;;;;;9.64;52.08;95901.78;4988196;28;20061;-75
2021/10/25 02:45:22;;;;;;;5.95;4.90;;;;;;;9.65;51.60;95891.94;4989870;28;20038;-73
2021/10/25 02:47:48;;;;;;;7.75;5.13;;;;;;;9.61;52.04;95890.91;4973674;28;20066;-74
2021/10/25 02:50:13;;;;;;;5.47;4.97;;;;;;;9.51;51.91;95889.13;4989323;28;20116;-73
2021/10/25 02:52:39;;;;;;;4.80;4.38;;;;;;;9.47;51.78;95890.78;4987971;28;20121;-75
2021/10/25 02:55:05;;;;;;;5.47;4.70;;;;;;;9.49;52.01;95893.94;4994941;28;20050;-70
2021/10/25 02:57:30;;;;;;;7.28;5.03;;;;;;;9.42;51.88;95884.69;4988387;28;20030;-74
2021/10/25 02:59:56;;;;;;;4.82;4.00;;;;;;;9.41;52.00;95883.88;4987940;28;20496;-73
2021/10/25 03:02:21;;;;;;;6.53;5.38;;;;;;;9.16;52.35;95850.38;4990297;28;20026;-74
2021/10/25 03:04:46;;;;;;;5.78;4.90;;;;;;;9.46;52.20;95891.03;4988059;28;20045;-73
2021/10/25 03:07:12;;;;;;;6.05;5.10;;;;;;;9.45;52.25;95879.63;4988776;28;20131;-73
2021/10/25 03:09:38;;;;;;;4.20;3.78;;;;;;;9.45;51.72;95887.56;5002706;28;20030;-73
2021/10/25 03:12:04;;;;;;;5.55;5.05;;;;;;;9.36;52.02;95876.75;4987825;28;20506;-73
2021/10/25 03:14:30;;;;;;;5.20;4.70;;;;;;;9.43;51.91;95892.38;4990290;28;20073;-73
2021/10/25 03:16:55;;;;;;;6.40;4.47;;;;;;;9.41;52.60;95891.06;4992090;28;20566;-73
2021/10/25 03:19:20;;;;;;;6.68;4.90;;;;;;;9.37;52.78;95893.50;4990093;28;20040;-73
2021/10/25 03:21:46;;;;;;;5.88;4.97;;;;;;;9.31;52.69;95889.28;4989471;28;20263;-73
2021/10/25 03:24:12;;;;;;;5.25;4.68;;;;;;;9.30;52.68;95898.31;4991160;28;20034;-73
2021/10/25 03:26:37;;;;;;;7.03;5.20;;;;;;;9.29;52.58;95894.09;4993416;28;20380;-73
2021/10/25 03:29:03;;;;;;;6.90;5.60;;;;;;;9.20;52.45;95882.47;4991209;28;20034;-73
2021/10/25 03:31:28;;;;;;;5.10;4.60;;;;;;;9.21;52.54;95882.19;4991723;28;20048;-74
2021/10/25 03:33:54;;;;;;;5.40;3.97;;;;;;;9.20;52.82;95896.53;4991228;28;20043;-74
2021/10/25 03:36:21;;;;;;;6.15;4.97;;;;;;;9.20;53.12;95893.88;4991021;28;20621;-73
2021/10/25 03:38:47;;;;;;;4.38;3.97;;;;;;;9.22;52.39;95902.38;4991459;28;20092;-74
2021/10/25 03:41:18;;;;;;;5.03;4.18;;;;;;;9.16;52.86;95889.38;4991531;28;20050;-74
2021/10/25 03:43:50;;;;;;;4.70;4.30;;;;;;;9.22;53.06;95904.22;4991096;28;20458;-74
2021/10/25 03:49:03;;;;;;;3.45;3.15;;;;;;;9.11;53.19;95900.84;4991063;28;20049;-74
2021/10/25 03:51:29;;;;;;;5.43;3.97;;;;;;;9.19;52.82;95902.91;4991110;28;20046;-73
2021/10/25 04:26:32;;;;;;;4.13;3.72;;;;;;;9.35;52.49;95874.38;4992025;28;20040;-76
2021/10/25 04:28:58;;;;;;;3.53;3.13;;;;;;;9.31;52.66;95878.66;4990037;28;20475;-73
2021/10/25 04:31:23;;;;;;;4.07;3.70;;;;;;;9.25;52.63;95869.94;4990629;28;20062;-74
2021/10/25 04:33:49;;;;;;;3.40;3.10;;;;;;;9.20;52.67;95869.19;4990155;28;20103;-74
2021/10/25 04:36:15;;;;;;;3.90;3.60;;;;;;;9.22;52.66;95881.13;4989654;28;20069;-73
2021/10/25 04:38:40;;;;;;;4.68;4.28;;;;;;;9.18;52.89;95877.44;4999496;28;20022;-73
2021/10/25 04:41:06;;;;;;;3.60;3.30;;;;;;;9.12;52.40;95867.94;4988992;28;20042;-73
2021/10/25 04:43:32;;;;;;;3.40;3.10;;;;;;;9.25;52.57;95869.94;4990108;28;20035;-73
2021/10/25 04:45:57;;;;;;;5.50;3.50;;;;;;;9.17;52.31;95861.78;4990369;28;20046;-74
2021/10/25 04:48:23;;;;;;;4.40;3.78;;;;;;;9.19;52.60;95867.59;4990610;28;20409;-74
2021/10/25 04:50:49;;;;;;;3.90;3.50;;;;;;;9.10;52.61;95856.78;4991572;28;20113;-73
2021/10/25 04:53:14;;;;;;;3.95;3.50;;;;;;;8.95;52.92;95835.66;4990717;28;20050;-73
2021/10/25 04:55:40;;;;;;;5.65;4.15;;;;;;;9.13;52.34;95868.72;4996495;28;20039;-73
2021/10/25 04:58:05;;;;;;;6.82;3.80;;;;;;;9.09;52.76;95868.47;4989777;28;20030;-73
2021/10/25 05:00:31;;;;;;;4.65;3.45;;;;;;;9.13;52.79;95874.81;4988128;28;20041;-73
2021/10/25 05:02:58;;;;;;;3.35;2.78;;;;;;;9.12;52.91;95873.25;4989777;28;20034;-74
2021/10/25 05:05:24;;;;;;;3.58;3.28;;;;;;;9.15;52.73;95869.22;4991602;28;20030;-73
2021/10/25 05:07:49;;;;;;;4.60;3.10;;;;;;;9.18;52.50;95868.69;4988993;28;20050;-74
2021/10/25 05:10:15;;;;;;;3.83;3.42;;;;;;;9.13;52.67;95856.25;4997103;28;20546;-73
2021/10/25 05:12:40;;;;;;;5.80;3.90;;;;;;;9.15;52.69;95858.63;4989470;28;20034;-73
2021/10/25 05:15:06;;;;;;;3.47;3.10;;;;;;;9.19;52.64;95871.06;4989479;28;20026;-73
2021/10/25 05:17:31;;;;;;;4.50;3.90;;;;;;;9.19;52.67;95871.06;4991588;28;20053;-73
2021/10/25 05:19:57;;;;;;;5.00;3.40;;;;;;;9.16;52.61;95860.97;4971845;28;20652;-73
2021/10/25 05:22:23;;;;;;;4.88;3.28;;;;;;;9.15;52.47;95856.75;4989107;28;20046;-74
2021/10/25 05:24:49;;;;;;;3.72;3.22;;;;;;;9.20;52.31;95869.19;4989161;28;20039;-74
2021/10/25 05:27:16;;;;;;;5.55;3.75;;;;;;;9.12;52.60;95854.66;4979949;28;20125;-73
2021/10/25 05:29:41;;;;;;;6.28;3.85;;;;;;;9.17;52.54;95865.25;4990908;28;20172;-74
2021/10/25 05:32:07;;;;;;;3.72;3.30;;;;;;;9.19;52.53;95868.41;4989522;28;20135;-73
2021/10/25 05:34:34;;;;;;;4.88;3.40;;;;;;;9.17;52.08;95865.25;4989038;28;20452;-73
2021/10/25 05:37:01;;;;;;;5.68;3.35;;;;;;;9.19;52.34;95857.00;4987280;28;20042;-73
2021/10/25 05:39:27;;;;;;;4.72;3.30;;;;;;;9.25;52.51;95867.28;4999123;28;20041;-73
2021/10/25 05:41:52;;;;;;;3.58;2.95;;;;;;;9.28;52.32;95865.97;4992694;28;20031;-74
2021/10/25 05:44:19;;;;;;;4.97;3.08;;;;;;;9.29;52.11;95856.91;4990987;28;20079;-74
2021/10/25 05:46:44;;;;;;;6.97;3.40;;;;;;;9.38;52.29;95868.53;4989504;28;20132;-74
2021/10/25 05:49:10;;;;;;;3.05;2.70;;;;;;;9.38;52.01;95858.69;4988373;28;20440;-70
2021/10/25 05:51:35;;;;;;;5.60;2.90;;;;;;;9.42;52.22;95852.81;4988515;28;20042;-68
2021/10/25 05:54:04;;;;;;;5.93;3.40;;;;;;;9.63;52.00;95852.38;4996630;28;20190;-75
2021/10/25 05:56:30;;;;;;;3.88;3.47;;;;;;;9.75;51.35;95859.16;5011141;28;20060;-76
2021/10/25 05:58:56;;;;;;;3.58;3.28;;;;;;;9.74;51.57;95853.06;5009408;28;20555;-74
2021/10/25 06:01:27;;;;;;;6.63;3.95;;;;;;;9.78;51.46;95853.31;5008769;28;20080;-74
2021/10/25 06:03:58;;;;;;;3.57;3.00;;;;;;;9.78;51.04;95854.09;5008655;28;20053;-75
2021/10/25 06:06:24;;;;;;;3.67;3.38;;;;;;;9.84;50.85;95852.19;5007385;28;20530;-77
2021/10/25 06:08:50;;;;;;;3.78;3.47;;;;;;;9.87;51.24;95852.38;4999558;28;20069;-70
2021/10/25 06:11:15;;;;;;;4.10;3.22;;;;;;;9.92;51.35;95864.03;5001850;28;20022;-77
2021/10/25 06:13:43;;;;;;;5.60;4.30;;;;;;;10.02;50.89;95878.03;5009381;28;20034;-76
2021/10/25 06:18:41;;;;;;;5.20;4.22;;;;;;;10.06;50.61;95868.41;5009232;28;20037;-79
2021/10/25 06:21:07;;;;;;;5.47;4.22;;;;;;;10.12;50.65;95869.16;5009486;28;20034;-77
2021/10/25 06:23:33;;;;;;;4.72;3.85;;;;;;;10.19;50.75;95872.28;4995848;28;20010;-75
2021/10/25 06:26:03;;;;;;;4.28;3.25;;;;;;;10.28;50.38;95867.94;5009342;28;20050;-75
2021/10/25 06:28:28;;;;;;;8.00;3.58;;;;;;;10.31;50.59;95872.69;4989574;28;20046;-75
2021/10/25 06:31:06;;;;;;;4.65;3.10;;;;;;;10.32;50.90;95868.94;4988022;28;20030;-76
2021/10/25 06:33:41;;;;;;;3.70;3.35;;;;;;;10.43;49.86;95864.31;4989462;28;20140;-75
2021/10/25 06:36:07;;;;;;;3.97;3.20;;;;;;;10.51;49.91;95860.22;4989336;28;20076;-76
2021/10/25 06:38:37;;;;;;;3.53;3.22;;;;;;;10.67;50.01;95873.03;4993540;28;20014;-75
2021/10/25 06:41:03;;;;;;;4.85;3.20;;;;;;;10.82;49.84;95880.03;5001089;28;20037;-74
2021/10/25 06:43:38;;;;;;;4.63;3.15;;;;;;;10.95;50.33;95867.88;4988472;28;20034;-76
2021/10/25 06:46:03;;;;;;;5.88;3.50;;;;;;;11.04;48.94;95862.69;4989507;28;20034;-77
2021/10/25 06:48:30;;;;;;;3.30;3.00;;;;;;;11.10;48.91;95862.31;4989670;28;20053;-75
2021/10/25 06:50:56;;;;;;;5.45;3.17;;;;;;;11.25;49.31;95863.97;4993496;28;20026;-77
2021/10/25 06:53:22;;;;;;;2.78;2.53;;;;;;;11.40;48.60;95873.59;4996750;28;20109;-76
2021/10/25 06:55:48;;;;;;;6.38;3.42;;;;;;;11.49;48.29;95865.75;5007090;28;20129;-76
2021/10/25 06:58:13;;;;;;;3.53;3.20;;;;;;;11.66;48.20;95871.31;4992987;28;20043;-79
2021/10/25 07:00:39;;;;;;;4.55;2.80;;;;;;;11.76;48.21;95871.13;4992455;28;20068;-75
2021/10/25 07:03:05;;;;;;;3.65;2.80;;;;;;;11.96;47.98;95880.69;4992102;28;20134;-74
2021/10/25 07:05:33;;;;;;;3.97;2.78;;;;;;;12.06;47.64;95877.84;4994116;28;20023;-75
2021/10/25 07:07:59;;;;;;;2.95;2.65;;;;;;;12.19;47.03;95878.94;4998789;28;20069;-75
2021/10/25 07:10:26;;;;;;;2.70;2.13;;;;;;;12.40;46.59;95887.34;4982364;28;20068;-73
2021/10/25 07:12:52;;;;;;;3.38;2.30;;;;;;;12.54;46.44;95884.66;4991641;28;20039;-75
2021/10/25 07:15:19;;;;;;;3.35;2.30;;;;;;;12.71;45.95;95884.84;4990678;28;20092;-74
2021/10/25 08:06:10;;;;;;;2.83;1.92;;;;;;;15.06;41.62;95893.94;4990649;28;20034;-73
2021/10/25 08:08:52;;;;;;;4.20;2.60;;;;;;;15.22;41.50;95888.13;4991723;28;20097;-73
2021/10/25 08:11:18;;;;;;;3.92;2.70;;;;;;;15.47;41.30;95890.03;4989475;28;20074;-72
2021/10/25 08:13:46;;;;;;;4.07;2.70;;;;;;;15.62;41.56;95871.88;4990415;28;20650;-73
2021/10/25 08:21:17;;;;;;;4.03;2.53;;;;;;;16.11;41.23;95892.75;4989838;28;20129;-73
2021/10/25 08:23:43;;;;;;;4.05;2.20;;;;;;;16.22;40.67;95900.47;4991319;28;20026;-73
2021/10/25 08:26:09;;;;;;;2.63;2.40;;;;;;;16.29;40.54;95896.19;4989865;28;20291;-73
2021/10/25 08:28:35;;;;;;;8.05;2.47;;;;;;;16.38;39.91;95904.22;4988408;28;20129;-73
2021/10/25 08:31:00;;;;;;;2.78;1.95;;;;;;;16.19;38.06;95899.22;4972280;28;20045;-73
2021/10/25 08:41:19;;;;;;;4.20;2.03;;;;;;;16.92;38.93;95882.94;4990231;28;20100;-74
2021/10/25 08:43:46;;;;;;;3.80;2.13;;;;;;;17.11;39.04;95898.63;4988221;28;20038;-74
2021/10/25 08:46:14;;;;;;;5.72;1.95;;;;;;;17.29;38.77;95892.00;4989854;28;20085;-73
2021/10/25 08:48:48;;;;;;;4.80;1.88;;;;;;;17.50;38.31;95905.44;4989164;28;20043;-74
2021/10/25 08:51:15;;;;;;;10.40;1.90;;;;;;;17.55;37.65;95894.47;4989422;28;20034;-73
2021/10/25 08:53:41;;;;;;;3.38;1.70;;;;;;;17.66;36.98;95879.53;4990384;28;20073;-74
2021/10/25 08:56:07;;;;;;;2.67;2.10;;;;;;;17.78;36.40;95880.72;4989049;28;20042;-77
2021/10/25 08:58:36;;;;;;;1.92;1.40;;;;;;;17.93;36.40;95877.41;4989327;28;20035;-77
2021/10/25 09:01:02;;;;;;;4.40;1.55;;;;;;;18.23;35.70;95888.00;4988688;28;20042;-74
2021/10/25 09:03:28;;;;;;;2.40;1.70;;;;;;;18.26;35.51;95855.78;4990170;28;20165;-76
2021/10/25 09:05:56;;;;;;;2.85;1.58;;;;;;;18.44;35.47;95881.41;4990272;28;20022;-76
2021/10/25 09:08:23;;;;;;;5.55;1.73;;;;;;;18.55;35.48;95872.88;4991871;28;20026;-75
2021/10/25 09:10:48;;;;;;;7.68;2.72;;;;;;;18.57;35.88;95855.25;4994773;28;20128;-77
2021/10/25 09:13:22;;;;;;;8.63;3.78;;;;;;;18.76;35.67;95875.50;5008473;28;20034;-75
2021/10/25 09:15:51;;;;;;;8.85;2.45;;;;;;;18.81;35.23;95883.34;5009309;28;20091;-73
2021/10/25 09:18:22;;;;;;;11.10;3.35;;;;;;;18.92;35.05;95879.06;5008753;28;20092;-72
2021/10/25 09:20:53;;;;;;;16.88;2.50;;;;;;;19.01;35.04;95874.34;5010466;28;20119;-75
2021/10/25 09:23:25;;;;;;;5.38;1.40;;;;;;;19.09;34.55;95872.63;4999424;28;20096;-74
2021/10/25 09:25:55;;;;;;;2.85;1.40;;;;;;;19.29;34.30;95870.88;5000195;28;20034;-73
2021/10/25 09:28:28;;;;;;;1.58;1.40;;;;;;;19.51;34.18;95862.28;4990317;28;20042;-75
2021/10/25 09:31:09;;;;;;;2.78;1.83;;;;;;;19.65;34.00;95868.09;4988659;28;20496;-74
2021/10/25 09:33:36;;;;;;;2.53;1.55;;;;;;;19.67;34.40;95854.28;4987352;28;20046;-74
2021/10/25 09:36:06;;;;;;;1.67;1.48;;;;;;;19.82;33.39;95871.63;4971870;28;20391;-73
2021/10/25 09:38:49;;;;;;;3.05;1.70;;;;;;;19.82;33.29;95871.63;4973242;28;20022;-75
2021/10/25 09:49:32;;;;;;;3.88;1.83;;;;;;;20.18;32.42;95870.66;4988693;28;20041;-75
2021/10/25 09:51:58;;;;;;;3.75;1.60;;;;;;;20.24;32.13;95875.44;4988757;28;20038;-73
2021/10/25 09:54:25;;;;;;;2.13;1.55;;;;;;;20.29;31.70;95866.28;4987426;28;20403;-72
2021/10/25 09:57:03;;;;;;;2.38;1.70;;;;;;;20.37;31.29;95856.44;4988503;28;20026;-81
2021/10/25 09:59:50;;;;;;;3.80;1.70;;;;;;;20.64;31.70;95871.81;4990626;28;20025;-71
2021/10/25 10:02:18;;;;;;;2.22;1.67;;;;;;;20.74;30.85;95865.84;4987702;28;20099;-72
2021/10/25 10:04:46;;;;;;;3.08;1.80;;;;;;;20.81;30.66;95857.13;4988278;28;20035;-73
2021/10/25 10:07:12;;;;;;;1.92;1.70;;;;;;;20.95;30.13;95849.34;4988159;28;20046;-73
2021/10/25 10:09:46;;;;;;;2.53;1.83;;;;;;;21.19;30.09;95863.72;4999638;28;20077;-73
2021/10/25 10:12:18;;;;;;;3.60;1.83;;;;;;;21.35;29.93;95859.09;4980886;28;20119;-73
2021/10/25 10:14:50;;;;;;;1.92;1.80;;;;;;;21.41;29.71;95871.19;4972865;28;20057;-74
2021/10/25 10:17:42;;;;;;;1.73;1.63;;;;;;;21.20;28.64;95857.19;4988777;28;20034;-73
2021/10/25 10:20:20;;;;;;;2.25;1.60;;;;;;;21.28;29.07;95862.38;4984053;28;20042;-74
2021/10/25 10:22:50;;;;;;;3.28;1.90;;;;;;;21.39;29.33;95856.44;4987912;28;20148;-73
2021/10/25 10:25:53;;;;;;;2.28;2.03;;;;;;;21.49;29.39;95864.00;4995793;28;20515;-73
2021/10/25 10:28:44;;;;;;;2.42;2.05;;;;;;;21.44;28.71;95839.94;4978477;28;20047;-80
2021/10/25 10:31:13;;;;;;;2.28;1.80;;;;;;;21.61;27.94;95839.50;4976101;28;20050;-81
2021/10/25 10:33:42;;;;;;;2.08;1.90;;;;;;;21.69;27.96;95849.31;5001915;28;20096;-77
2021/10/25 10:36:33;;;;;;;3.38;2.38;;;;;;;21.67;27.72;95838.06;5000586;28;20030;-76
2021/10/25 10:39:18;;;;;;;2.22;1.73;;;;;;;21.56;27.99;95844.44;4988945;28;20032;-78
2021/10/25 10:41:50;;;;;;;2.97;1.95;;;;;;;21.70;27.65;95837.38;4998911;28;20676;-78
2021/10/25 10:44:19;;;;;;;2.30;2.10;;;;;;;21.79;27.77;95843.31;5009507;28;20042;-73
2021/10/25 10:46:55;;;;;;;2.70;2.15;;;;;;;21.80;27.46;95833.25;4988105;28;20042;-75
2021/10/25 10:49:24;;;;;;;2.25;2.05;;;;;;;21.85;27.07;95835.69;5009393;28;20133;-83
2021/10/25 10:52:52;;;;;;;2.97;2.38;;;;;;;21.95;27.01;95832.38;5008519;28;20050;-76
2021/10/25 10:55:16;;;;;;;2.42;1.63;;;;;;;21.92;26.90;95830.41;4978199;28;20042;-77
2021/10/25 11:00:39;;;;;;;5.55;2.10;;;;;;;21.97;27.04;95837.47;4988740;28;20048;-78
2021/10/25 11:03:07;;;;;;;3.55;2.40;;;;;;;22.04;27.25;95832.94;4987915;28;20526;-78
2021/10/25 11:05:36;;;;;;;1.63;1.52;;;;;;;22.08;26.65;95824.09;4990572;28;20026;-69
2021/10/25 11:08:08;;;;;;;3.20;2.03;;;;;;;22.20;26.72;95813.88;4987209;28;20062;-72
2021/10/25 11:10:39;;;;;;;2.58;2.22;;;;;;;22.22;26.57;95817.03;4988865;28;20037;-78
2021/10/25 11:13:15;;;;;;;3.05;2.45;;;;;;;22.05;26.21;95820.16;4988898;28;20412;-82
2021/10/25 11:15:52;;;;;;;2.78;2.33;;;;;;;20.91;27.77;95813.31;4989756;28;20050;-74
2021/10/25 11:18:27;;;;;;;5.72;2.22;;;;;;;20.46;28.28;95816.50;4988457;28;20043;-74
2021/10/25 11:21:19;;;;;;;3.25;2.30;;;;;;;21.41;28.53;95817.06;4987937;28;20026;-74
2021/10/25 11:23:48;;;;;;;2.95;2.33;;;;;;;21.84;28.09;95806.25;4988942;28;20034;-73
2021/10/25 11:26:19;;;;;;;3.05;2.75;;;;;;;22.12;27.54;95803.31;4987498;28;20039;-73
2021/10/25 11:29:05;;;;;;;4.37;2.90;;;;;;;22.26;26.92;95798.09;4987612;28;20507;-72
2021/10/25 11:31:38;;;;;;;4.22;2.53;;;;;;;22.29;27.02;95790.03;4987548;28;20535;-72
2021/10/25 11:34:15;;;;;;;3.60;2.78;;;;;;;22.33;27.42;95789.31;4987941;28;20042;-75
2021/10/25 11:37:02;;;;;;;3.38;3.08;;;;;;;22.39;27.11;95793.28;4989667;28;20116;-82
2021/10/25 11:39:41;;;;;;;4.15;3.15;;;;;;;22.34;27.04;95778.09;4995378;28;20519;-76
2021/10/25 11:42:16;;;;;;;4.10;2.65;;;;;;;22.16;27.08;95780.53;4993197;28;20073;-78
2021/10/25 11:44:44;;;;;;;4.15;3.10;;;;;;;22.19;26.96;95789.84;4991584;28;20088;-74
2021/10/25 11:47:34;;;;;;;3.83;3.28;;;;;;;22.45;27.48;95803.44;4991723;28;20050;-80
2021/10/25 11:50:04;;;;;;;6.20;3.22;;;;;;;22.70;26.92;95809.22;4990492;28;20780;-74
2021/10/25 11:52:37;;;;;;;5.80;2.80;;;;;;;22.72;27.30;95796.06;4990854;28;20142;-73
2021/10/25 11:55:03;;;;;;;6.70;2.72;;;;;;;22.87;26.87;95786.22;4990403;28;20046;-74
2021/10/25 11:57:28;;;;;;;3.78;2.20;;;;;;;22.88;26.53;95778.84;4990980;28;20062;-74
2021/10/25 12:00:02;;;;;;;2.28;1.90;;;;;;;21.79;27.36;95780.25;4990421;28;20053;-74
2021/10/25 12:02:27;;;;;;;2.00;1.80;;;;;;;21.65;27.37;95785.41;4994032;28;20089;-79
2021/10/25 12:04:53;;;;;;;2.78;2.20;;;;;;;22.25;27.49;95788.41;4992550;28;20058;-84
2021/10/25 12:07:18;;;;;;;4.22;2.40;;;;;;;22.48;27.58;95774.84;4991112;28;20089;-75
2021/10/25 12:09:44;;;;;;;3.00;2.25;;;;;;;22.65;27.13;95774.28;4990580;28;20042;-76
2021/10/25 12:12:14;;;;;;;2.83;2.55;;;;;;;22.82;26.92;95765.59;4990468;28;20034;-73
2021/10/25 12:14:43;;;;;;;5.78;2.25;;;;;;;22.77;26.83;95755.09;4991984;28;20030;-70
2021/10/25 12:17:11;;;;;;;3.55;2.10;;;;;;;22.98;26.73;95772.81;4988998;28;20715;-71
2021/10/25 12:19:41;;;;;;;4.05;2.08;;;;;;;22.95;26.34;95763.50;4990476;28;20134;-74
2021/10/25 12:22:12;;;;;;;2.63;2.10;;;;;;;23.03;26.49;95762.44;4991388;28;20105;-77
2021/10/25 12:24:43;;;;;;;1.70;1.50;;;;;;;22.99;26.02;95761.63;4990457;28;20039;-75
2021/10/25 12:27:15;;;;;;;1.75;1.65;;;;;;;22.27;26.16;95754.38;4998487;28;20364;-76
2021/10/25 12:29:40;;;;;;;4.38;2.08;;;;;;;22.57;26.20;95759.06;4992720;28;20090;-76
2021/10/25 12:32:08;;;;;;;2.58;2.22;;;;;;;22.51;25.92;95741.56;4991159;28;20042;-75
2021/10/25 12:34:50;;;;;;;3.25;2.20;;;;;;;22.47;26.45;95738.00;4990745;28;20065;-74
2021/10/25 12:37:21;;;;;;;3.70;2.53;;;;;;;22.69;26.23;95755.38;4990966;28;20539;-76
2021/10/25 12:39:46;;;;;;;3.78;2.90;;;;;;;22.59;26.25;95756.78;4986253;28;20137;-79
2021/10/25 12:42:13;;;;;;;4.22;2.65;;;;;;;22.61;26.70;95751.75;5001294;28;20121;-75
2021/10/25 12:44:44;;;;;;;4.53;2.75;;;;;;;22.71;26.43;95763.91;4992765;28;20031;-76
2021/10/25 12:47:22;;;;;;;7.95;3.20;;;;;;;22.86;26.87;95764.88;4989568;28;20050;-76
2021/10/25 12:49:54;;;;;;;3.22;2.40;;;;;;;22.92;26.96;95755.31;4989285;28;20113;-76
2021/10/25 12:52:20;;;;;;;3.53;2.60;;;;;;;22.25;26.90;95740.41;4990525;28;20060;-74
2021/10/25 12:54:46;;;;;;;8.02;2.97;;;;;;;22.35;26.74;95741.72;4995335;28;20118;-75
2021/10/25 12:57:23;;;;;;;5.43;2.35;;;;;;;22.57;26.84;95749.03;5001171;28;20096;-75
2021/10/25 12:59:58;;;;;;;3.50;2.75;;;;;;;22.65;26.88;95747.19;4980438;28;20030;-77
2021/10/25 13:02:25;;;;;;;3.50;2.53;;;;;;;22.73;27.33;95746.13;4973719;28;20038;-74
2021/10/25 13:04:51;;;;;;;9.88;2.80;;;;;;;22.90;26.90;95763.03;4990457;28;20078;-75
2021/10/25 13:07:19;;;;;;;5.32;2.20;;;;;;;22.91;26.99;95737.47;4990209;28;20038;-75
2021/10/25 13:09:50;;;;;;;2.95;1.90;;;;;;;23.14;26.29;95750.94;4989421;28;20054;-76
2021/10/25 13:12:16;;;;;;;3.63;2.35;;;;;;;23.13;26.71;95752.06;4998250;28;20049;-75
2021/10/25 13:14:42;;;;;;;2.55;2.30;;;;;;;23.05;26.55;95749.28;4974545;28;20077;-75
2021/10/25 13:17:07;;;;;;;4.63;2.42;;;;;;;23.05;26.62;95748.50;4990253;28;20467;-75
2021/10/25 13:19:33;;;;;;;2.33;2.10;;;;;;;23.08;26.72;95745.03;4988926;28;20393;-75
2021/10/25 13:21:59;;;;;;;1.65;1.50;;;;;;;23.07;26.11;95738.06;4990042;28;20065;-74
2021/10/25 13:24:24;;;;;;;3.13;1.95;;;;;;;23.17;26.28;95742.03;4989140;28;20046;-74
2021/10/25 13:26:51;;;;;;;4.18;1.70;;;;;;;23.11;26.24;95738.88;4990348;28;20031;-74
2021/10/25 13:29:16;;;;;;;3.20;1.90;;;;;;;23.07;25.63;95729.91;4989940;28;20878;-75
2021/10/25 13:31:42;;;;;;;3.17;1.80;;;;;;;22.99;25.89;95725.56;4989523;28;20117;-74
2021/10/25 13:34:07;;;;;;;2.05;1.83;;;;;;;22.82;26.56;95719.50;4989573;28;20045;-75